Time;durP1;ratioP1;P1;durP2;ratioP2;P2;SDS_P1;SDS_P2;PMS_P1;PMS_P2;Temp;Humidity;BMP_temperature;BMP_pressure;BME280_temperature;BME280_humidity;BME280_pressure;Samples;Min_cycle;Max_cycle;Signal;HPM_P1;HPM_P2
2023/12/31 00:01:38;;;;;;;7.45;3.38;;;9.50;99.90;;;;;;5075392;28;20048;-57
2023/12/31 00:04:05;;;;;;;7.18;3.08;;;9.40;99.90;;;;;;5010593;28;20038;-55
2023/12/31 00:06:30;;;;;;;7.70;3.17;;;9.10;99.90;;;;;;5083742;28;20107;-57
2023/12/31 00:08:56;;;;;;;6.75;2.72;;;9.10;99.90;;;;;;5098301;28;20390;-57
2023/12/31 00:11:22;;;;;;;5.97;3.10;;;9.20;99.90;;;;;;5083294;28;20498;-57
2023/12/31 00:13:47;;;;;;;8.77;3.35;;;9.20;99.90;;;;;;5059833;28;20042;-56
2023/12/31 00:16:14;;;;;;;8.48;2.90;;;8.90;99.90;;;;;;5088769;28;20050;-54
2023/12/31 00:18:40;;;;;;;5.28;2.88;;;9.10;99.90;;;;;;5088786;28;20428;-59
2023/12/31 00:21:05;;;;;;;8.52;3.15;;;8.80;99.90;;;;;;5080059;28;20032;-57
2023/12/31 00:23:31;;;;;;;6.63;2.97;;;8.90;99.90;;;;;;5079849;28;20038;-56
2023/12/31 00:25:57;;;;;;;5.28;2.92;;;8.90;99.90;;;;;;5088769;28;20039;-57
2023/12/31 00:28:22;;;;;;;6.43;2.80;;;8.70;99.90;;;;;;5080825;28;20379;-59
2023/12/31 00:30:48;;;;;;;6.70;2.63;;;8.80;99.90;;;;;;5086545;27;20045;-57
2023/12/31 00:33:14;;;;;;;5.47;2.90;;;8.80;99.90;;;;;;5090374;28;20036;-56
2023/12/31 00:35:39;;;;;;;5.63;2.45;;;8.80;99.90;;;;;;5107752;28;20035;-58
2023/12/31 00:38:05;;;;;;;6.45;2.90;;;9.10;99.90;;;;;;5100427;28;20116;-57
2023/12/31 00:40:31;;;;;;;6.75;3.15;;;8.80;99.90;;;;;;5028495;28;20036;-57
2023/12/31 00:42:56;;;;;;;8.05;2.55;;;9.10;99.90;;;;;;5023994;28;20039;-58
2023/12/31 00:45:22;;;;;;;5.53;2.70;;;8.80;99.90;;;;;;5073064;28;20044;-59
2023/12/31 00:47:48;;;;;;;7.55;3.00;;;8.80;99.90;;;;;;5091546;28;20036;-55
2023/12/31 00:50:13;;;;;;;7.80;3.10;;;8.90;99.90;;;;;;5029493;28;20041;-57
2023/12/31 00:52:39;;;;;;;7.43;2.88;;;8.80;99.90;;;;;;5027513;28;20045;-57
2023/12/31 00:55:05;;;;;;;5.82;2.70;;;8.80;99.90;;;;;;5028635;28;20038;-59
2023/12/31 00:57:31;;;;;;;6.53;2.70;;;9.10;99.90;;;;;;5029115;28;20041;-58
2023/12/31 00:59:56;;;;;;;5.45;2.55;;;8.80;99.90;;;;;;5068528;28;20181;-57
2023/12/31 01:02:22;;;;;;;5.38;2.28;;;8.80;99.90;;;;;;5030063;28;20049;-57
2023/12/31 01:04:48;;;;;;;4.65;2.45;;;8.80;99.90;;;;;;5027934;28;20041;-57
2023/12/31 01:07:14;;;;;;;5.35;2.35;;;9.00;99.90;;;;;;5027074;28;20060;-57
2023/12/31 01:09:40;;;;;;;4.40;2.10;;;9.00;99.90;;;;;;5094035;28;20035;-58
2023/12/31 01:12:06;;;;;;;6.55;2.40;;;8.90;99.90;;;;;;5030362;28;20041;-58
2023/12/31 01:14:34;;;;;;;4.53;2.28;;;9.00;99.90;;;;;;5028153;28;20029;-59
2023/12/31 01:17:00;;;;;;;4.55;2.30;;;9.00;99.90;;;;;;5027967;28;20486;-59
2023/12/31 01:19:26;;;;;;;5.40;2.50;;;9.00;99.90;;;;;;5090287;28;20505;-57
2023/12/31 01:21:51;;;;;;;5.57;2.00;;;9.00;99.90;;;;;;5111325;28;20086;-57
2023/12/31 01:24:17;;;;;;;4.97;2.13;;;8.90;99.90;;;;;;5108669;28;20466;-58
2023/12/31 01:26:43;;;;;;;5.55;2.00;;;8.80;99.90;;;;;;5107526;28;20533;-57
2023/12/31 01:29:09;;;;;;;4.32;2.08;;;9.10;99.90;;;;;;5062039;28;20061;-57
2023/12/31 01:31:34;;;;;;;4.63;2.10;;;8.90;99.90;;;;;;5027901;28;20437;-55
2023/12/31 01:34:00;;;;;;;5.78;2.25;;;9.10;99.90;;;;;;5027804;28;20034;-57
2023/12/31 01:36:25;;;;;;;4.55;2.22;;;9.10;99.90;;;;;;5071724;28;20449;-60
2023/12/31 01:38:51;;;;;;;5.07;2.03;;;9.00;99.90;;;;;;5111395;28;20061;-58
2023/12/31 01:41:17;;;;;;;4.32;1.70;;;8.90;99.90;;;;;;5110875;28;20043;-55
2023/12/31 01:43:43;;;;;;;4.97;1.90;;;8.80;99.90;;;;;;5105064;28;20029;-56
2023/12/31 01:46:11;;;;;;;4.90;1.85;;;9.10;99.90;;;;;;5110932;28;20060;-58
2023/12/31 01:48:37;;;;;;;7.30;2.00;;;9.00;99.90;;;;;;5110873;28;20045;-57
2023/12/31 01:51:05;;;;;;;5.55;1.80;;;9.00;99.90;;;;;;5026943;28;20045;-57
2023/12/31 01:53:32;;;;;;;6.22;1.92;;;8.90;99.90;;;;;;5027575;28;20049;-59
2023/12/31 01:55:58;;;;;;;5.00;2.13;;;9.00;99.90;;;;;;5028200;28;20049;-58
2023/12/31 01:58:24;;;;;;;6.78;2.15;;;8.90;99.90;;;;;;5027794;28;20052;-58
2023/12/31 02:00:50;;;;;;;5.38;2.00;;;8.90;99.90;;;;;;5050220;28;20039;-57
2023/12/31 02:03:16;;;;;;;6.00;2.08;;;9.00;99.90;;;;;;5106024;28;20066;-57
2023/12/31 02:05:42;;;;;;;4.65;1.80;;;8.90;99.90;;;;;;5107613;28;20038;-57
2023/12/31 02:08:08;;;;;;;3.35;1.65;;;8.80;99.90;;;;;;5110463;28;20027;-58
2023/12/31 02:10:34;;;;;;;6.35;1.73;;;9.00;99.90;;;;;;5114389;28;20066;-56
2023/12/31 02:13:00;;;;;;;3.38;1.60;;;8.90;99.90;;;;;;5114021;27;20126;-56
2023/12/31 02:15:32;;;;;;;3.95;1.50;;;8.80;99.90;;;;;;5106172;28;20043;-58
2023/12/31 02:18:02;;;;;;;5.53;1.80;;;8.70;99.90;;;;;;5099229;27;20036;-56
2023/12/31 02:20:31;;;;;;;5.35;1.70;;;8.70;99.90;;;;;;5108638;28;20455;-58
2023/12/31 02:22:57;;;;;;;3.80;1.60;;;8.90;99.90;;;;;;5108933;28;20028;-57
2023/12/31 02:25:24;;;;;;;2.60;1.23;;;8.70;99.90;;;;;;5030866;28;20083;-59
2023/12/31 02:27:51;;;;;;;3.67;1.60;;;8.90;99.90;;;;;;5029939;28;20056;-59
2023/12/31 02:30:17;;;;;;;3.67;1.70;;;8.70;99.90;;;;;;5078026;28;20066;-59
2023/12/31 02:32:43;;;;;;;2.67;1.30;;;8.70;99.90;;;;;;5113622;28;20093;-57
2023/12/31 02:35:09;;;;;;;4.32;1.50;;;8.70;99.90;;;;;;5107360;28;20059;-57
2023/12/31 02:37:34;;;;;;;2.95;1.48;;;8.70;99.90;;;;;;5112239;28;20046;-57
2023/12/31 02:40:00;;;;;;;5.38;1.40;;;8.90;99.90;;;;;;5114592;28;20088;-58
2023/12/31 02:42:26;;;;;;;4.70;1.35;;;8.70;99.90;;;;;;5114685;28;20085;-58
2023/12/31 02:44:51;;;;;;;3.97;1.30;;;8.80;99.90;;;;;;5109292;28;20092;-56
2023/12/31 02:47:17;;;;;;;4.63;1.60;;;8.80;99.90;;;;;;5113119;28;20368;-58
2023/12/31 02:49:43;;;;;;;4.32;1.63;;;8.90;99.90;;;;;;5111659;28;20071;-57
2023/12/31 02:52:11;;;;;;;5.38;1.70;;;8.80;99.90;;;;;;5113665;28;20070;-57
2023/12/31 02:54:38;;;;;;;5.90;2.50;;;8.90;99.90;;;;;;5113447;28;20044;-57
2023/12/31 02:57:07;;;;;;;5.32;2.47;;;8.80;99.90;;;;;;5112870;28;20584;-60
2023/12/31 02:59:35;;;;;;;5.15;1.85;;;8.80;99.90;;;;;;5094432;27;20037;-55
2023/12/31 03:02:01;;;;;;;5.95;2.00;;;8.90;99.90;;;;;;5028647;28;20392;-57
2023/12/31 03:04:27;;;;;;;4.47;2.00;;;8.80;99.90;;;;;;5029298;28;20034;-55
2023/12/31 03:06:52;;;;;;;5.32;1.60;;;8.90;99.90;;;;;;5030606;28;20037;-55
2023/12/31 03:09:20;;;;;;;5.07;1.63;;;8.90;99.90;;;;;;5015598;28;20405;-58
2023/12/31 03:11:46;;;;;;;3.67;1.85;;;8.90;99.90;;;;;;5113772;28;20563;-57
2023/12/31 03:14:14;;;;;;;4.20;1.92;;;9.00;99.90;;;;;;5007523;28;20114;-57
2023/12/31 03:16:46;;;;;;;4.70;2.10;;;9.00;99.90;;;;;;5031701;28;20045;-57
2023/12/31 03:19:12;;;;;;;5.13;2.03;;;8.80;99.90;;;;;;5029586;28;20041;-57
2023/12/31 03:21:38;;;;;;;4.78;1.90;;;8.80;99.90;;;;;;5030247;28;20052;-56
2023/12/31 03:24:04;;;;;;;5.15;2.15;;;9.80;99.90;;;;;;5060357;28;20482;-55
2023/12/31 03:26:30;;;;;;;6.85;2.20;;;9.00;99.90;;;;;;5113869;28;20150;-58
2023/12/31 03:28:55;;;;;;;6.18;2.22;;;8.80;99.90;;;;;;5113043;28;20494;-57
2023/12/31 03:31:21;;;;;;;4.35;1.70;;;8.90;99.90;;;;;;5113527;28;20474;-57
2023/12/31 03:33:46;;;;;;;5.70;2.08;;;9.00;99.90;;;;;;5112881;28;20031;-57
2023/12/31 03:36:12;;;;;;;5.05;2.47;;;8.90;99.90;;;;;;5113430;28;20122;-58
2023/12/31 03:38:38;;;;;;;6.03;2.33;;;8.80;99.90;;;;;;5105245;28;20035;-56
2023/12/31 03:41:04;;;;;;;6.40;2.65;;;8.90;99.90;;;;;;5113475;28;20039;-58
2023/12/31 03:43:30;;;;;;;6.18;2.33;;;8.80;99.90;;;;;;5106207;28;20394;-57
2023/12/31 03:45:57;;;;;;;4.25;2.05;;;9.00;99.90;;;;;;5112965;28;20039;-58
2023/12/31 03:48:23;;;;;;;6.53;2.30;;;8.90;99.90;;;;;;5112959;28;20494;-56
2023/12/31 03:50:49;;;;;;;4.90;2.15;;;8.90;99.90;;;;;;5113518;27;20097;-57
2023/12/31 03:53:14;;;;;;;5.10;2.58;;;8.90;99.90;;;;;;5112824;28;20032;-56
2023/12/31 03:55:41;;;;;;;4.63;2.33;;;9.00;99.90;;;;;;5113283;28;20042;-58
2023/12/31 03:58:06;;;;;;;6.40;3.03;;;8.90;99.90;;;;;;5112949;28;20096;-57
2023/12/31 04:00:33;;;;;;;5.25;2.78;;;9.00;99.90;;;;;;5113106;28;20043;-56
2023/12/31 04:02:58;;;;;;;5.50;2.63;;;9.00;99.90;;;;;;5103310;28;20122;-56
2023/12/31 04:05:24;;;;;;;5.43;2.47;;;9.10;99.90;;;;;;5112601;28;20114;-59
2023/12/31 04:07:50;;;;;;;4.93;2.20;;;9.10;99.90;;;;;;5112784;28;20027;-57
2023/12/31 04:10:16;;;;;;;5.25;2.35;;;8.90;99.90;;;;;;5113018;28;20482;-57
2023/12/31 04:12:41;;;;;;;5.07;2.33;;;8.90;99.90;;;;;;5112958;28;20043;-57
2023/12/31 04:15:08;;;;;;;4.82;2.38;;;9.00;99.90;;;;;;5071577;28;20033;-56
2023/12/31 04:17:36;;;;;;;5.13;2.00;;;8.90;99.90;;;;;;5027893;28;20049;-57
2023/12/31 04:20:02;;;;;;;5.90;2.38;;;8.90;99.90;;;;;;5029481;28;20040;-57
2023/12/31 04:22:28;;;;;;;5.32;2.20;;;8.90;99.90;;;;;;5028446;28;20488;-57
2023/12/31 04:24:54;;;;;;;5.10;2.17;;;9.00;99.90;;;;;;5020718;28;20041;-58
2023/12/31 04:27:20;;;;;;;5.57;2.10;;;9.00;99.90;;;;;;5111583;28;20064;-58
2023/12/31 04:29:46;;;;;;;5.40;2.08;;;8.90;99.90;;;;;;5112253;28;20031;-57
2023/12/31 04:32:11;;;;;;;5.95;2.22;;;9.00;99.90;;;;;;5112089;27;20031;-56
2023/12/31 04:34:37;;;;;;;5.45;2.35;;;8.90;99.90;;;;;;5112255;27;20035;-55
2023/12/31 04:37:03;;;;;;;4.72;2.05;;;9.00;99.90;;;;;;5112294;28;20032;-56
2023/12/31 04:39:29;;;;;;;4.65;2.20;;;9.00;99.90;;;;;;5112215;28;20046;-57
2023/12/31 04:41:55;;;;;;;6.13;2.00;;;9.00;99.90;;;;;;5014114;28;20533;-57
2023/12/31 04:44:21;;;;;;;6.90;2.40;;;9.00;99.90;;;;;;5028648;28;20033;-57
2023/12/31 04:46:47;;;;;;;4.38;1.70;;;9.10;99.90;;;;;;5029147;28;20120;-57
2023/12/31 04:49:16;;;;;;;3.35;1.67;;;9.00;99.90;;;;;;5054611;28;20435;-56
2023/12/31 04:51:42;;;;;;;7.80;1.85;;;9.10;99.90;;;;;;5111885;28;20071;-56
2023/12/31 04:54:08;;;;;;;4.93;1.95;;;9.10;99.90;;;;;;5111840;28;20493;-55
2023/12/31 04:56:34;;;;;;;4.70;2.10;;;9.00;99.90;;;;;;5112187;28;20413;-56
2023/12/31 04:59:00;;;;;;;4.57;1.90;;;9.00;99.90;;;;;;5103231;28;20042;-56
2023/12/31 05:01:31;;;;;;;5.07;2.33;;;9.10;99.90;;;;;;5111947;28;20036;-56
2023/12/31 05:03:58;;;;;;;5.55;1.98;;;9.10;99.90;;;;;;5111208;28;20051;-59
2023/12/31 05:06:24;;;;;;;6.25;2.10;;;9.10;99.90;;;;;;5111681;28;20474;-54
2023/12/31 05:08:50;;;;;;;4.50;2.20;;;9.00;99.90;;;;;;5111893;28;20367;-57
2023/12/31 05:11:15;;;;;;;5.22;2.38;;;9.10;99.90;;;;;;5103621;28;20050;-58
2023/12/31 05:13:42;;;;;;;6.43;2.60;;;9.00;99.90;;;;;;5111828;28;20045;-57
2023/12/31 05:16:15;;;;;;;7.35;2.53;;;9.00;99.90;;;;;;5111549;28;20051;-59
2023/12/31 05:18:51;;;;;;;5.00;2.40;;;8.90;99.90;;;;;;5111788;28;20424;-56
2023/12/31 05:21:17;;;;;;;5.28;2.60;;;9.00;99.90;;;;;;5111547;28;20035;-56
2023/12/31 05:23:42;;;;;;;6.10;2.63;;;9.00;99.90;;;;;;5111461;28;20456;-57
2023/12/31 05:26:08;;;;;;;5.47;2.30;;;8.90;99.90;;;;;;5111262;28;20036;-56
2023/12/31 05:28:34;;;;;;;5.75;2.63;;;9.00;99.90;;;;;;5111021;28;20055;-57
2023/12/31 05:31:00;;;;;;;6.63;2.75;;;8.90;99.90;;;;;;5111455;28;20118;-55
2023/12/31 05:33:25;;;;;;;6.03;2.50;;;8.90;99.90;;;;;;5110910;28;20043;-56
2023/12/31 05:35:51;;;;;;;6.30;2.40;;;8.90;99.90;;;;;;5110477;28;20028;-56
2023/12/31 05:38:17;;;;;;;5.78;2.85;;;9.00;99.90;;;;;;5109051;28;20497;-58
2023/12/31 05:40:43;;;;;;;6.38;2.72;;;9.10;99.90;;;;;;5026266;28;20120;-56
2023/12/31 05:43:09;;;;;;;7.22;3.08;;;9.00;99.90;;;;;;5027637;28;20037;-57
2023/12/31 05:45:34;;;;;;;5.50;2.92;;;9.10;99.90;;;;;;5028296;28;20563;-56
2023/12/31 05:48:00;;;;;;;5.07;2.67;;;9.10;99.90;;;;;;5027803;28;20373;-56
2023/12/31 05:50:26;;;;;;;7.47;3.22;;;9.00;99.90;;;;;;5028002;28;20033;-57
2023/12/31 05:52:52;;;;;;;6.57;3.17;;;9.00;99.90;;;;;;5081945;28;20093;-55
2023/12/31 05:55:18;;;;;;;6.43;2.92;;;9.10;99.90;;;;;;5110802;28;20042;-57
2023/12/31 05:57:44;;;;;;;6.95;2.90;;;9.10;99.90;;;;;;5110782;28;20478;-56
2023/12/31 06:00:10;;;;;;;6.22;3.30;;;9.00;99.90;;;;;;5110756;28;20044;-58
2023/12/31 06:02:37;;;;;;;7.57;3.40;;;9.10;99.90;;;;;;5110841;28;20063;-57
2023/12/31 06:05:02;;;;;;;9.27;3.00;;;9.10;99.90;;;;;;5110956;28;20478;-57
2023/12/31 06:07:29;;;;;;;5.78;3.17;;;9.10;99.90;;;;;;5110915;28;20031;-57
2023/12/31 06:09:55;;;;;;;9.63;3.60;;;9.20;99.90;;;;;;5110965;28;20516;-58
2023/12/31 06:12:20;;;;;;;7.80;3.90;;;9.20;99.90;;;;;;5028640;28;20515;-55
2023/12/31 06:14:46;;;;;;;7.00;3.40;;;9.10;99.90;;;;;;5027756;28;20029;-57
2023/12/31 06:17:11;;;;;;;5.75;3.25;;;9.10;99.90;;;;;;5093922;28;20032;-58
2023/12/31 06:19:37;;;;;;;6.35;3.20;;;9.20;99.90;;;;;;5110660;28;20036;-57
2023/12/31 06:22:03;;;;;;;6.22;3.10;;;9.20;99.90;;;;;;5110804;28;20032;-58
2023/12/31 06:24:29;;;;;;;5.90;3.05;;;9.20;99.90;;;;;;5110825;28;20084;-58
2023/12/31 06:26:54;;;;;;;7.22;3.45;;;9.20;99.90;;;;;;5110353;28;20036;-59
2023/12/31 06:29:20;;;;;;;7.15;3.10;;;9.20;99.90;;;;;;5110827;28;20040;-58
2023/12/31 06:31:45;;;;;;;8.13;3.38;;;9.10;99.90;;;;;;5027913;28;20041;-57
2023/12/31 06:34:12;;;;;;;6.60;3.10;;;9.10;99.90;;;;;;5026873;28;20490;-58
2023/12/31 06:36:37;;;;;;;7.65;3.15;;;9.20;99.90;;;;;;5027407;28;20526;-59
2023/12/31 06:39:03;;;;;;;5.80;3.03;;;9.20;99.90;;;;;;5027630;28;20049;-57
2023/12/31 06:41:28;;;;;;;5.15;2.92;;;9.20;99.90;;;;;;5076311;28;20072;-58
2023/12/31 06:43:54;;;;;;;6.68;3.28;;;9.20;99.90;;;;;;5110548;28;20401;-57
2023/12/31 06:46:20;;;;;;;5.43;2.88;;;9.30;99.90;;;;;;5112400;28;20027;-57
2023/12/31 06:48:46;;;;;;;5.20;2.80;;;9.30;99.90;;;;;;5114211;28;20062;-59
2023/12/31 06:51:11;;;;;;;4.18;2.30;;;9.30;99.90;;;;;;5114425;28;20035;-56
2023/12/31 06:53:38;;;;;;;4.03;2.40;;;9.20;99.90;;;;;;5114427;28;20043;-59
2023/12/31 06:56:08;;;;;;;4.85;2.50;;;9.30;99.90;;;;;;5114355;28;20502;-56
2023/12/31 06:58:35;;;;;;;4.80;2.50;;;9.30;99.90;;;;;;5114412;28;20039;-57
2023/12/31 07:01:01;;;;;;;5.50;2.47;;;9.30;99.90;;;;;;5114230;28;20044;-58
2023/12/31 07:03:27;;;;;;;6.47;2.70;;;9.40;99.90;;;;;;5014945;28;20041;-58
2023/12/31 07:05:52;;;;;;;4.90;2.70;;;9.30;99.90;;;;;;5030386;28;20045;-56
2023/12/31 07:08:18;;;;;;;6.95;2.72;;;9.40;99.90;;;;;;5059927;28;20028;-56
2023/12/31 07:10:44;;;;;;;3.92;2.40;;;9.30;99.90;;;;;;5113388;28;20043;-58
2023/12/31 07:13:09;;;;;;;5.38;2.70;;;9.40;99.90;;;;;;5063942;28;20041;-56
2023/12/31 07:15:35;;;;;;;5.40;3.05;;;9.40;99.90;;;;;;5030611;28;20484;-58
2023/12/31 07:18:02;;;;;;;5.60;2.67;;;9.50;99.90;;;;;;5028813;28;20404;-57
2023/12/31 07:20:28;;;;;;;5.68;2.72;;;9.50;99.90;;;;;;5030216;28;20049;-56
2023/12/31 07:22:54;;;;;;;4.55;2.80;;;9.40;99.90;;;;;;5030109;28;20125;-59
2023/12/31 07:25:21;;;;;;;5.43;2.83;;;9.50;99.90;;;;;;5029661;28;20033;-58
2023/12/31 07:27:47;;;;;;;6.78;3.50;;;9.50;99.90;;;;;;5030022;28;20446;-55
2023/12/31 07:30:12;;;;;;;5.82;2.80;;;9.50;99.90;;;;;;5051818;28;20114;-57
2023/12/31 07:32:38;;;;;;;5.45;2.90;;;9.50;99.90;;;;;;5028958;28;20117;-56
2023/12/31 07:35:05;;;;;;;4.88;2.67;;;9.50;99.90;;;;;;5029683;28;20049;-59
2023/12/31 07:37:31;;;;;;;5.07;3.03;;;9.50;99.90;;;;;;5030192;28;20402;-55
2023/12/31 07:40:00;;;;;;;4.82;3.08;;;9.50;99.90;;;;;;5029609;28;20037;-56
2023/12/31 07:42:25;;;;;;;6.28;2.95;;;9.50;99.90;;;;;;5030106;28;20047;-57
2023/12/31 07:44:51;;;;;;;5.32;3.10;;;9.50;99.90;;;;;;5030007;28;20483;-58
2023/12/31 07:47:17;;;;;;;5.47;3.42;;;9.50;99.90;;;;;;5029584;28;20492;-57
2023/12/31 07:49:42;;;;;;;5.57;2.90;;;9.40;99.90;;;;;;5018962;28;20044;-57
2023/12/31 07:52:08;;;;;;;7.60;3.25;;;9.40;99.90;;;;;;5112742;28;20071;-57
2023/12/31 07:54:34;;;;;;;6.63;2.95;;;9.50;99.90;;;;;;5028918;28;20045;-59
2023/12/31 07:57:00;;;;;;;6.90;3.70;;;9.40;99.90;;;;;;5028990;28;20045;-58
2023/12/31 07:59:26;;;;;;;7.55;3.20;;;9.50;99.90;;;;;;5029068;28;20433;-59
2023/12/31 08:01:52;;;;;;;6.45;3.38;;;9.50;99.90;;;;;;5029431;28;20067;-56
2023/12/31 08:04:18;;;;;;;4.93;2.90;;;9.40;99.90;;;;;;5029041;28;20098;-56
2023/12/31 08:06:43;;;;;;;5.38;3.25;;;9.50;99.90;;;;;;5029444;28;20437;-57
2023/12/31 08:09:11;;;;;;;7.22;2.95;;;9.40;99.90;;;;;;5033082;28;20372;-58
2023/12/31 08:11:37;;;;;;;6.90;3.13;;;9.50;99.90;;;;;;5096324;28;20031;-58
2023/12/31 08:14:03;;;;;;;5.80;3.05;;;9.50;99.90;;;;;;5108984;28;20046;-57
2023/12/31 08:16:29;;;;;;;7.75;3.10;;;9.60;99.90;;;;;;5112716;27;20044;-58
2023/12/31 08:18:54;;;;;;;6.18;2.88;;;9.60;99.90;;;;;;5093129;28;20079;-55
2023/12/31 08:21:20;;;;;;;5.28;2.97;;;9.60;99.90;;;;;;5106002;28;20046;-57
2023/12/31 08:23:46;;;;;;;5.60;3.00;;;9.60;99.90;;;;;;5111044;28;20046;-56
2023/12/31 08:26:13;;;;;;;8.02;3.53;;;9.60;99.90;;;;;;5044435;28;20034;-57
2023/12/31 08:28:39;;;;;;;7.35;3.35;;;9.60;99.90;;;;;;5097679;28;20463;-59
2023/12/31 08:31:05;;;;;;;5.50;3.08;;;9.70;99.90;;;;;;5112710;28;20040;-57
2023/12/31 08:33:31;;;;;;;6.70;3.45;;;9.60;99.90;;;;;;5111873;27;20396;-59
2023/12/31 08:35:56;;;;;;;6.82;3.20;;;9.70;99.90;;;;;;5112176;28;20035;-57
2023/12/31 08:38:22;;;;;;;5.50;3.20;;;9.70;99.90;;;;;;5031606;28;20042;-56
2023/12/31 08:40:48;;;;;;;5.63;3.15;;;9.70;99.90;;;;;;5022039;28;20149;-57
2023/12/31 08:43:16;;;;;;;5.00;2.90;;;9.80;99.90;;;;;;5004184;28;20190;-56
2023/12/31 08:45:43;;;;;;;5.80;3.05;;;9.70;99.90;;;;;;5028835;28;20042;-57
2023/12/31 08:48:10;;;;;;;5.43;3.08;;;9.70;99.90;;;;;;5025904;28;20050;-58
2023/12/31 08:50:36;;;;;;;7.95;3.20;;;9.80;99.90;;;;;;5023277;28;20034;-57
2023/12/31 08:53:02;;;;;;;6.75;3.78;;;9.80;99.90;;;;;;5001924;28;20408;-55
2023/12/31 08:55:28;;;;;;;7.45;3.35;;;9.80;99.90;;;;;;5024209;28;20053;-56
2023/12/31 08:57:53;;;;;;;8.52;3.40;;;9.80;99.90;;;;;;5026415;28;20038;-57
2023/12/31 09:00:19;;;;;;;8.10;3.47;;;9.80;99.90;;;;;;5029842;28;20040;-56
2023/12/31 09:02:46;;;;;;;8.40;4.10;;;9.70;99.90;;;;;;5021383;28;20063;-56
2023/12/31 09:05:11;;;;;;;8.73;4.55;;;9.80;99.90;;;;;;5012549;28;20038;-56
2023/12/31 09:07:37;;;;;;;6.70;4.35;;;9.80;99.90;;;;;;5016502;28;20443;-57
2023/12/31 09:10:04;;;;;;;6.55;4.00;;;9.80;99.90;;;;;;5018912;28;20045;-56
2023/12/31 09:12:30;;;;;;;7.25;4.03;;;9.90;99.90;;;;;;5000892;28;20049;-57
2023/12/31 09:14:56;;;;;;;7.75;3.90;;;9.80;99.90;;;;;;5029888;28;20067;-59
2023/12/31 09:17:22;;;;;;;8.15;4.82;;;9.90;99.90;;;;;;5023810;28;20045;-59
2023/12/31 09:19:48;;;;;;;6.05;3.60;;;9.90;99.90;;;;;;5017661;28;20037;-58
2023/12/31 09:22:13;;;;;;;6.68;3.47;;;9.90;99.90;;;;;;5019001;28;20057;-59
2023/12/31 09:24:39;;;;;;;6.10;3.50;;;9.90;99.90;;;;;;5022513;28;20115;-58
2023/12/31 09:27:07;;;;;;;6.32;3.95;;;9.90;99.90;;;;;;5019088;28;20030;-59
2023/12/31 09:29:35;;;;;;;6.40;3.72;;;9.80;99.90;;;;;;5029404;28;20401;-56
2023/12/31 09:32:00;;;;;;;5.57;3.47;;;9.80;99.90;;;;;;5024398;28;20042;-54
2023/12/31 09:34:26;;;;;;;6.45;3.97;;;9.90;99.90;;;;;;5029507;28;20060;-54
2023/12/31 09:36:51;;;;;;;7.35;4.40;;;9.80;99.90;;;;;;5011721;28;20345;-52
2023/12/31 09:39:17;;;;;;;7.88;3.90;;;9.90;99.90;;;;;;5022496;28;20445;-56
2023/12/31 09:41:47;;;;;;;5.75;3.67;;;9.90;99.90;;;;;;5025483;28;20042;-55
2023/12/31 09:44:19;;;;;;;6.93;3.90;;;9.90;99.90;;;;;;4997472;28;20038;-55
2023/12/31 09:47:00;;;;;;;7.68;3.55;;;9.90;99.90;;;;;;5031649;28;20052;-54
2023/12/31 09:49:26;;;;;;;7.32;4.00;;;9.90;99.90;;;;;;4983454;28;20045;-55
2023/12/31 09:51:53;;;;;;;7.85;4.40;;;9.90;99.90;;;;;;4986570;28;20030;-56
2023/12/31 09:54:21;;;;;;;7.13;4.03;;;10.00;99.90;;;;;;5018772;28;20411;-55
2023/12/31 09:56:49;;;;;;;8.13;4.25;;;10.00;99.90;;;;;;5013432;28;20480;-56
2023/12/31 09:59:15;;;;;;;6.65;3.90;;;10.00;99.90;;;;;;5020807;28;20050;-58
2023/12/31 10:01:42;;;;;;;7.55;3.80;;;10.10;99.90;;;;;;5015994;28;20449;-56
2023/12/31 10:04:09;;;;;;;5.95;3.92;;;10.20;99.90;;;;;;5018452;28;20050;-56
2023/12/31 10:06:37;;;;;;;6.70;3.88;;;10.20;99.90;;;;;;5029513;28;20458;-58
2023/12/31 10:09:06;;;;;;;7.43;4.47;;;10.30;99.90;;;;;;5021784;28;20657;-58
2023/12/31 10:11:32;;;;;;;6.72;4.10;;;10.30;99.90;;;;;;5028741;28;20046;-59
2023/12/31 10:13:58;;;;;;;7.43;4.80;;;10.30;99.90;;;;;;5028988;28;20546;-53
2023/12/31 10:16:33;;;;;;;6.30;4.15;;;10.40;99.90;;;;;;5025477;28;20074;-57
2023/12/31 10:18:59;;;;;;;6.90;3.63;;;10.40;99.90;;;;;;5015740;28;20365;-57
2023/12/31 10:21:25;;;;;;;7.07;4.20;;;10.40;99.90;;;;;;5020501;28;20040;-57
2023/12/31 10:23:51;;;;;;;7.93;4.10;;;10.40;99.90;;;;;;5000533;28;20034;-56
2023/12/31 10:26:17;;;;;;;5.78;4.03;;;10.50;99.90;;;;;;5003668;28;20539;-57
2023/12/31 10:28:43;;;;;;;6.60;4.10;;;10.50;99.90;;;;;;5018425;28;20053;-56
2023/12/31 10:31:10;;;;;;;7.45;3.25;;;10.50;99.90;;;;;;5016660;28;20038;-58
2023/12/31 10:33:37;;;;;;;6.22;3.53;;;10.50;99.90;;;;;;5032453;28;20482;-56
2023/12/31 10:36:04;;;;;;;5.85;3.17;;;10.50;99.90;;;;;;5033366;28;20042;-57
2023/12/31 10:38:45;;;;;;;6.13;2.90;;;10.60;99.90;;;;;;5019745;28;20465;-56
2023/12/31 10:41:14;;;;;;;5.85;3.30;;;10.60;99.90;;;;;;4983303;28;20054;-57
2023/12/31 10:43:40;;;;;;;5.18;3.17;;;10.60;99.90;;;;;;5012856;28;20500;-57
2023/12/31 10:46:08;;;;;;;4.93;2.65;;;10.50;99.90;;;;;;5027829;28;20578;-57
2023/12/31 10:48:38;;;;;;;6.97;2.90;;;10.60;99.90;;;;;;5020196;28;20438;-56
2023/12/31 10:51:08;;;;;;;4.55;2.30;;;10.50;99.90;;;;;;5028251;28;20052;-57
2023/12/31 10:53:39;;;;;;;4.95;2.67;;;10.40;99.90;;;;;;5021957;28;20069;-57
2023/12/31 10:56:06;;;;;;;6.63;3.53;;;10.40;99.90;;;;;;5014032;28;20038;-57
2023/12/31 10:58:32;;;;;;;7.85;3.75;;;10.30;99.90;;;;;;5004310;28;20046;-59
2023/12/31 11:00:59;;;;;;;4.90;1.67;;;9.90;99.90;;;;;;5024768;28;20514;-59
2023/12/31 11:03:32;;;;;;;3.00;1.02;;;9.80;99.90;;;;;;5026903;28;20022;-59
2023/12/31 11:06:00;;;;;;;3.38;0.95;;;9.50;99.90;;;;;;5023366;28;20032;-59
2023/12/31 11:08:28;;;;;;;2.20;1.00;;;9.20;99.90;;;;;;5022164;28;20026;-59
2023/12/31 11:10:54;;;;;;;4.57;1.20;;;9.10;99.90;;;;;;5031191;28;23149;-59
2023/12/31 11:13:21;;;;;;;2.75;0.93;;;8.80;99.90;;;;;;5029115;28;20488;-59
2023/12/31 11:15:49;;;;;;;2.97;1.10;;;8.70;99.90;;;;;;5025182;28;20045;-59
2023/12/31 11:18:35;;;;;;;3.58;1.02;;;8.60;99.90;;;;;;5029969;28;20138;-58
2023/12/31 11:21:23;;;;;;;4.45;1.10;;;8.80;99.90;;;;;;5021919;28;20122;-59
2023/12/31 11:24:10;;;;;;;3.63;1.30;;;8.60;99.90;;;;;;5033902;28;20661;-59
2023/12/31 11:26:38;;;;;;;4.60;1.45;;;8.70;99.90;;;;;;5038177;28;20046;-60
2023/12/31 11:29:09;;;;;;;3.42;0.90;;;8.70;99.90;;;;;;5022923;28;20463;-59
2023/12/31 11:31:40;;;;;;;2.53;1.17;;;8.70;99.90;;;;;;5029192;28;20065;-59
2023/12/31 11:34:05;;;;;;;3.55;1.33;;;8.60;99.90;;;;;;5030355;28;20038;-59
2023/12/31 11:36:31;;;;;;;3.35;1.20;;;8.60;99.90;;;;;;5028973;28;20483;-59
2023/12/31 11:39:01;;;;;;;3.70;1.45;;;8.90;99.90;;;;;;5024655;28;20036;-59
2023/12/31 11:41:32;;;;;;;3.78;1.10;;;9.00;99.90;;;;;;5020232;28;20060;-59
2023/12/31 11:43:57;;;;;;;4.03;1.30;;;8.90;99.90;;;;;;5029194;28;20065;-59
2023/12/31 11:46:37;;;;;;;3.13;1.48;;;8.90;99.90;;;;;;5030079;28;20140;-60
2023/12/31 11:49:03;;;;;;;4.13;1.15;;;9.20;99.90;;;;;;5007232;28;20073;-59
2023/12/31 11:51:29;;;;;;;2.83;1.60;;;9.20;99.90;;;;;;5018754;28;20187;-59
2023/12/31 11:53:58;;;;;;;5.03;2.47;;;9.20;99.90;;;;;;5012859;28;20388;-59
2023/12/31 11:56:27;;;;;;;4.03;1.60;;;9.50;99.90;;;;;;5024816;28;20137;-59
2023/12/31 11:58:54;;;;;;;3.20;1.30;;;9.50;99.90;;;;;;4998059;28;20073;-59
2023/12/31 12:01:19;;;;;;;3.63;1.17;;;10.10;99.90;;;;;;5017646;28;20532;-58
2023/12/31 12:03:45;;;;;;;3.00;1.30;;;10.10;99.90;;;;;;5025108;28;20041;-58
2023/12/31 12:06:11;;;;;;;1.95;1.02;;;10.20;99.90;;;;;;5019275;28;20079;-59
2023/12/31 12:08:39;;;;;;;3.47;1.20;;;10.00;99.90;;;;;;5028902;28;20042;-59
2023/12/31 12:11:04;;;;;;;3.67;1.27;;;10.30;99.90;;;;;;5009584;28;20188;-61
2023/12/31 12:13:30;;;;;;;4.75;1.40;;;10.70;99.90;;;;;;5021791;28;20527;-60
2023/12/31 12:15:59;;;;;;;3.63;1.45;;;11.00;99.90;;;;;;5024577;28;20066;-58
2023/12/31 12:18:24;;;;;;;3.92;1.20;;;11.00;99.90;;;;;;5028206;28;20528;-58
2023/12/31 12:20:51;;;;;;;2.60;1.05;;;10.80;99.90;;;;;;5024453;28;20069;-58
2023/12/31 12:23:18;;;;;;;3.30;1.40;;;10.60;99.90;;;;;;4997623;28;20124;-58
2023/12/31 12:25:44;;;;;;;5.32;1.45;;;10.50;99.90;;;;;;5014588;28;20120;-57
2023/12/31 12:28:10;;;;;;;4.95;1.67;;;10.40;99.90;;;;;;5028126;28;20507;-57
2023/12/31 12:30:39;;;;;;;4.10;1.60;;;10.20;99.90;;;;;;5026386;28;20038;-57
2023/12/31 12:33:06;;;;;;;5.57;1.58;;;10.10;99.90;;;;;;5018800;28;20159;-58
2023/12/31 12:35:32;;;;;;;4.90;2.28;;;10.00;99.90;;;;;;5025798;28;20045;-56
2023/12/31 12:37:57;;;;;;;3.05;1.23;;;10.00;99.90;;;;;;5024259;28;20034;-57
2023/12/31 12:40:23;;;;;;;3.08;1.05;;;9.80;99.90;;;;;;5028742;28;20482;-56
2023/12/31 12:42:49;;;;;;;2.33;0.60;;;9.70;99.90;;;;;;5026984;28;20046;-59
2023/12/31 12:45:17;;;;;;;2.63;0.63;;;9.60;99.90;;;;;;5013703;28;20185;-56
2023/12/31 12:47:44;;;;;;;2.40;0.88;;;9.50;99.90;;;;;;5010326;28;20488;-56
2023/12/31 12:50:10;;;;;;;3.60;0.70;;;9.10;99.90;;;;;;5012724;28;20044;-57
2023/12/31 12:52:36;;;;;;;2.83;0.98;;;9.10;99.90;;;;;;5017868;28;20404;-56